sensor_id;sensor_type;location;lat;lon;timestamp;pressure;altitude;pressure_sealevel;temperature;humidity
72395;BME280;60384;48.152;11.614;2023-02-13T00:01:17;97534.22;;;3.09;65.56
72395;BME280;60384;48.152;11.614;2023-02-13T00:04:19;97535.03;;;3.10;65.29
72395;BME280;60384;48.152;11.614;2023-02-13T00:07:21;97527.31;;;3.08;65.48
72395;BME280;60384;48.152;11.614;2023-02-13T00:10:23;97524.91;;;3.07;65.05
72395;BME280;60384;48.152;11.614;2023-02-13T00:13:25;97516.19;;;3.06;65.36
72395;BME280;60384;48.152;11.614;2023-02-13T00:16:28;97518.38;;;3.09;65.45
72395;BME280;60384;48.152;11.614;2023-02-13T00:19:30;97519.19;;;3.10;65.43
72395;BME280;60384;48.152;11.614;2023-02-13T00:22:34;97518.75;;;3.13;65.13
72395;BME280;60384;48.152;11.614;2023-02-13T00:25:37;97519.53;;;3.13;65.16
72395;BME280;60384;48.152;11.614;2023-02-13T00:28:39;97514.84;;;3.15;64.94
72395;BME280;60384;48.152;11.614;2023-02-13T00:31:42;97507.50;;;3.17;64.98
72395;BME280;60384;48.152;11.614;2023-02-13T00:34:44;97517.63;;;3.20;65.17
72395;BME280;60384;48.152;11.614;2023-02-13T00:37:46;97513.13;;;3.21;65.69
72395;BME280;60384;48.152;11.614;2023-02-13T00:40:48;97501.78;;;3.20;65.19
72395;BME280;60384;48.152;11.614;2023-02-13T00:43:50;97498.56;;;3.18;65.14
72395;BME280;60384;48.152;11.614;2023-02-13T00:46:53;97503.59;;;3.20;65.11
72395;BME280;60384;48.152;11.614;2023-02-13T00:49:57;97491.47;;;3.19;64.91
72395;BME280;60384;48.152;11.614;2023-02-13T00:52:59;97497.50;;;3.19;65.41
72395;BME280;60384;48.152;11.614;2023-02-13T00:56:01;97495.94;;;3.18;65.14
72395;BME280;60384;48.152;11.614;2023-02-13T00:59:04;97497.97;;;3.16;65.52
72395;BME280;60384;48.152;11.614;2023-02-13T01:02:07;97495.00;;;3.13;65.34
72395;BME280;60384;48.152;11.614;2023-02-13T01:05:09;97494.19;;;3.12;65.33
72395;BME280;60384;48.152;11.614;2023-02-13T01:08:14;97494.19;;;3.12;65.38
72395;BME280;60384;48.152;11.614;2023-02-13T01:11:16;97498.78;;;3.17;65.75
72395;BME280;60384;48.152;11.614;2023-02-13T01:14:18;97501.22;;;3.18;65.62
72395;BME280;60384;48.152;11.614;2023-02-13T01:17:24;97495.94;;;3.18;65.08
72395;BME280;60384;48.152;11.614;2023-02-13T01:20:28;97486.59;;;3.16;65.18
72395;BME280;60384;48.152;11.614;2023-02-13T01:23:31;97491.28;;;3.14;65.19
72395;BME280;60384;48.152;11.614;2023-02-13T01:26:32;97486.25;;;3.12;65.67
72395;BME280;60384;48.152;11.614;2023-02-13T01:29:34;97487.06;;;3.13;65.17
72395;BME280;60384;48.152;11.614;2023-02-13T01:32:38;97491.06;;;3.15;65.22
72395;BME280;60384;48.152;11.614;2023-02-13T01:35:40;97490.28;;;3.15;65.10
72395;BME280;60384;48.152;11.614;2023-02-13T01:38:43;97492.09;;;3.14;65.07
72395;BME280;60384;48.152;11.614;2023-02-13T01:41:45;97483.16;;;3.15;65.66
72395;BME280;60384;48.152;11.614;2023-02-13T01:44:51;97489.47;;;3.14;65.22
72395;BME280;60384;48.152;11.614;2023-02-13T01:47:57;97490.66;;;3.18;65.24
72395;BME280;60384;48.152;11.614;2023-02-13T01:51:01;97489.25;;;3.16;65.50
72395;BME280;60384;48.152;11.614;2023-02-13T01:54:07;97482.56;;;3.13;65.56
72395;BME280;60384;48.152;11.614;2023-02-13T01:57:13;97479.94;;;3.13;65.19
72395;BME280;60384;48.152;11.614;2023-02-13T02:00:18;97481.53;;;3.14;65.12
72395;BME280;60384;48.152;11.614;2023-02-13T02:03:24;97484.19;;;3.14;65.44
72395;BME280;60384;48.152;11.614;2023-02-13T02:06:33;97475.69;;;3.12;65.17
72395;BME280;60384;48.152;11.614;2023-02-13T02:09:38;97490.47;;;3.13;65.77
72395;BME280;60384;48.152;11.614;2023-02-13T02:12:45;97484.44;;;3.13;65.12
72395;BME280;60384;48.152;11.614;2023-02-13T02:15:50;97490.72;;;3.12;65.20
72395;BME280;60384;48.152;11.614;2023-02-13T02:18:53;97498.88;;;3.10;65.59
72395;BME280;60384;48.152;11.614;2023-02-13T02:29:23;97493.09;;;3.02;65.70
72395;BME280;60384;48.152;11.614;2023-02-13T02:32:45;97495.97;;;3.00;65.19
72395;BME280;60384;48.152;11.614;2023-02-13T02:35:58;97494.13;;;3.01;65.45
72395;BME280;60384;48.152;11.614;2023-02-13T02:39:13;97495.50;;;3.03;65.08
72395;BME280;60384;48.152;11.614;2023-02-13T02:42:26;97501.03;;;3.02;65.39
72395;BME280;60384;48.152;11.614;2023-02-13T02:45:35;97497.78;;;3.00;65.68
72395;BME280;60384;48.152;11.614;2023-02-13T02:48:44;97504.22;;;3.04;65.79
72395;BME280;60384;48.152;11.614;2023-02-13T02:52:15;97505.84;;;3.05;65.40
72395;BME280;60384;48.152;11.614;2023-02-13T02:55:29;97502.19;;;3.06;65.38
72395;BME280;60384;48.152;11.614;2023-02-13T02:58:37;97496.69;;;3.07;65.34
72395;BME280;60384;48.152;11.614;2023-02-13T03:02:02;97502.75;;;3.08;65.40
72395;BME280;60384;48.152;11.614;2023-02-13T03:05:29;97501.97;;;3.07;65.74
72395;BME280;60384;48.152;11.614;2023-02-13T03:08:52;97490.81;;;3.05;65.39
72395;BME280;60384;48.152;11.614;2023-02-13T03:12:16;97494.69;;;3.03;65.46
72395;BME280;60384;48.152;11.614;2023-02-13T03:15:55;97497.00;;;2.99;65.27
72395;BME280;60384;48.152;11.614;2023-02-13T03:19:22;97490.56;;;2.95;65.79
72395;BME280;60384;48.152;11.614;2023-02-13T03:22:59;97484.69;;;2.93;65.68
72395;BME280;60384;48.152;11.614;2023-02-13T03:26:17;97485.91;;;2.90;65.65
72395;BME280;60384;48.152;11.614;2023-02-13T03:29:31;97483.53;;;2.89;65.61
72395;BME280;60384;48.152;11.614;2023-02-13T03:33:04;97488.22;;;2.87;65.38
72395;BME280;60384;48.152;11.614;2023-02-13T03:36:14;97489.22;;;2.86;65.83
72395;BME280;60384;48.152;11.614;2023-02-13T03:39:45;97500.25;;;2.83;65.66
72395;BME280;60384;48.152;11.614;2023-02-13T03:42:52;97507.56;;;2.81;65.60
72395;BME280;60384;48.152;11.614;2023-02-13T03:45:56;97507.41;;;2.76;65.61
72395;BME280;60384;48.152;11.614;2023-02-13T03:49:03;97499.97;;;2.73;65.62
72395;BME280;60384;48.152;11.614;2023-02-13T03:52:25;97509.91;;;2.71;65.17
72395;BME280;60384;48.152;11.614;2023-02-13T03:55:34;97512.56;;;2.71;65.88
72395;BME280;60384;48.152;11.614;2023-02-13T03:58:55;97504.66;;;2.71;66.10
72395;BME280;60384;48.152;11.614;2023-02-13T04:02:19;97503.97;;;2.75;65.98
72395;BME280;60384;48.152;11.614;2023-02-13T04:05:26;97508.03;;;2.78;65.74
72395;BME280;60384;48.152;11.614;2023-02-13T04:08:30;97505.94;;;2.80;65.93
72395;BME280;60384;48.152;11.614;2023-02-13T04:11:36;97506.75;;;2.80;66.15
72395;BME280;60384;48.152;11.614;2023-02-13T04:14:44;97504.91;;;2.81;65.81
72395;BME280;60384;48.152;11.614;2023-02-13T04:17:51;97509.63;;;2.79;66.02
72395;BME280;60384;48.152;11.614;2023-02-13T04:20:54;97508.81;;;2.78;66.07
72395;BME280;60384;48.152;11.614;2023-02-13T04:23:56;97505.38;;;2.78;65.96
72395;BME280;60384;48.152;11.614;2023-02-13T04:26:59;97505.59;;;2.76;65.89
72395;BME280;60384;48.152;11.614;2023-02-13T04:30:01;97507.22;;;2.77;66.26
72395;BME280;60384;48.152;11.614;2023-02-13T04:33:03;97502.97;;;2.76;66.03
72395;BME280;60384;48.152;11.614;2023-02-13T04:36:05;97504.19;;;2.74;66.15
72395;BME280;60384;48.152;11.614;2023-02-13T04:39:07;97505.25;;;2.73;65.86
72395;BME280;60384;48.152;11.614;2023-02-13T04:42:10;97491.66;;;2.69;66.09
72395;BME280;60384;48.152;11.614;2023-02-13T04:45:12;97506.69;;;2.69;66.10
72395;BME280;60384;48.152;11.614;2023-02-13T04:48:14;97493.75;;;2.67;66.09
72395;BME280;60384;48.152;11.614;2023-02-13T04:51:16;97500.59;;;2.68;65.93
72395;BME280;60384;48.152;11.614;2023-02-13T04:54:18;97504.66;;;2.71;65.69
72395;BME280;60384;48.152;11.614;2023-02-13T04:57:21;97498.22;;;2.67;66.05
72395;BME280;60384;48.152;11.614;2023-02-13T05:00:25;97510.81;;;2.65;65.81
72395;BME280;60384;48.152;11.614;2023-02-13T05:03:27;97503.91;;;2.64;65.90
72395;BME280;60384;48.152;11.614;2023-02-13T05:06:29;97497.81;;;2.63;66.04
72395;BME280;60384;48.152;11.614;2023-02-13T05:09:30;97508.16;;;2.65;65.69
72395;BME280;60384;48.152;11.614;2023-02-13T05:12:34;97505.53;;;2.65;65.99
72395;BME280;60384;48.152;11.614;2023-02-13T05:15:35;97510.19;;;2.63;65.71
72395;BME280;60384;48.152;11.614;2023-02-13T05:18:37;97514.31;;;2.59;66.23
72395;BME280;60384;48.152;11.614;2023-02-13T05:21:39;97518.78;;;2.58;66.23
72395;BME280;60384;48.152;11.614;2023-02-13T05:24:58;97515.59;;;2.56;66.23
72395;BME280;60384;48.152;11.614;2023-02-13T05:28:02;97507.88;;;2.55;66.24
72395;BME280;60384;48.152;11.614;2023-02-13T05:31:04;97506.47;;;2.52;65.92
72395;BME280;60384;48.152;11.614;2023-02-13T05:34:06;97516.22;;;2.52;66.00
72395;BME280;60384;48.152;11.614;2023-02-13T05:37:08;97512.56;;;2.53;65.92
72395;BME280;60384;48.152;11.614;2023-02-13T05:40:11;97514.19;;;2.54;65.90
72395;BME280;60384;48.152;11.614;2023-02-13T05:43:15;97515.78;;;2.55;65.56
72395;BME280;60384;48.152;11.614;2023-02-13T05:46:17;97518.44;;;2.55;65.99
72395;BME280;60384;48.152;11.614;2023-02-13T05:49:19;97515.59;;;2.56;65.97
72395;BME280;60384;48.152;11.614;2023-02-13T05:52:22;97519.25;;;2.55;66.05
72395;BME280;60384;48.152;11.614;2023-02-13T05:55:24;97523.50;;;2.56;65.97
72395;BME280;60384;48.152;11.614;2023-02-13T05:58:28;97522.69;;;2.56;65.92
72395;BME280;60384;48.152;11.614;2023-02-13T06:01:30;97535.41;;;2.59;65.76
72395;BME280;60384;48.152;11.614;2023-02-13T06:04:32;97533.13;;;2.62;66.09
72395;BME280;60384;48.152;11.614;2023-02-13T06:07:33;97533.75;;;2.64;66.17
72395;BME280;60384;48.152;11.614;2023-02-13T06:10:35;97533.31;;;2.67;65.88
72395;BME280;60384;48.152;11.614;2023-02-13T06:13:38;97532.50;;;2.67;66.01
72395;BME280;60384;48.152;11.614;2023-02-13T06:16:41;97535.13;;;2.67;65.71
72395;BME280;60384;48.152;11.614;2023-02-13T06:19:43;97537.78;;;2.67;66.04
72395;BME280;60384;48.152;11.614;2023-02-13T06:22:47;97545.44;;;2.68;65.87
72395;BME280;60384;48.152;11.614;2023-02-13T06:25:48;97545.44;;;2.68;66.41
72395;BME280;60384;48.152;11.614;2023-02-13T06:28:51;97549.34;;;2.66;65.77
72395;BME280;60384;48.152;11.614;2023-02-13T06:31:53;97550.97;;;2.67;65.87
72395;BME280;60384;48.152;11.614;2023-02-13T06:34:55;97554.16;;;2.69;66.03
72395;BME280;60384;48.152;11.614;2023-02-13T06:37:57;97556.38;;;2.72;66.07
72395;BME280;60384;48.152;11.614;2023-02-13T06:40:59;97557.75;;;2.74;66.19
72395;BME280;60384;48.152;11.614;2023-02-13T06:44:03;97554.31;;;2.74;65.85
72395;BME280;60384;48.152;11.614;2023-02-13T06:47:05;97552.50;;;2.74;65.68
72395;BME280;60384;48.152;11.614;2023-02-13T06:50:07;97554.31;;;2.74;65.99
72395;BME280;60384;48.152;11.614;2023-02-13T06:53:09;97558.00;;;2.73;65.88
72395;BME280;60384;48.152;11.614;2023-02-13T06:56:11;97553.97;;;2.70;65.96
72395;BME280;60384;48.152;11.614;2023-02-13T06:59:14;97569.59;;;2.72;65.98
72395;BME280;60384;48.152;11.614;2023-02-13T07:02:16;97564.09;;;2.73;65.93
72395;BME280;60384;48.152;11.614;2023-02-13T07:05:18;97575.22;;;2.75;66.00
72395;BME280;60384;48.152;11.614;2023-02-13T07:08:19;97568.09;;;2.76;65.77
72395;BME280;60384;48.152;11.614;2023-02-13T07:11:23;97577.03;;;2.75;65.72
72395;BME280;60384;48.152;11.614;2023-02-13T07:14:26;97576.22;;;2.74;65.98
72395;BME280;60384;48.152;11.614;2023-02-13T07:17:28;97585.56;;;2.77;65.87
72395;BME280;60384;48.152;11.614;2023-02-13T07:20:30;97575.97;;;2.82;65.57
72395;BME280;60384;48.152;11.614;2023-02-13T07:23:32;97577.94;;;2.87;65.71
72395;BME280;60384;48.152;11.614;2023-02-13T07:26:34;97581.72;;;2.91;65.44
72395;BME280;60384;48.152;11.614;2023-02-13T07:29:37;97584.97;;;2.93;65.82
72395;BME280;60384;48.152;11.614;2023-02-13T07:32:39;97595.09;;;2.96;65.71
72395;BME280;60384;48.152;11.614;2023-02-13T07:35:45;97595.47;;;3.00;65.20
72395;BME280;60384;48.152;11.614;2023-02-13T07:38:47;97597.22;;;3.06;65.65
72395;BME280;60384;48.152;11.614;2023-02-13T07:41:49;97601.81;;;3.10;65.16
72395;BME280;60384;48.152;11.614;2023-02-13T07:44:52;97607.47;;;3.14;65.46
72395;BME280;60384;48.152;11.614;2023-02-13T07:47:54;97615.16;;;3.15;65.37
72395;BME280;60384;48.152;11.614;2023-02-13T07:50:59;97614.94;;;3.17;65.77
72395;BME280;60384;48.152;11.614;2023-02-13T07:54:02;97623.69;;;3.17;65.53
72395;BME280;60384;48.152;11.614;2023-02-13T07:57:04;97625.31;;;3.18;65.45
72395;BME280;60384;48.152;11.614;2023-02-13T08:00:08;97621.59;;;3.19;65.66
72395;BME280;60384;48.152;11.614;2023-02-13T08:03:13;97624.72;;;3.16;65.21
72395;BME280;60384;48.152;11.614;2023-02-13T08:06:15;97619.22;;;3.18;65.72
72395;BME280;60384;48.152;11.614;2023-02-13T08:09:19;97618.75;;;3.21;65.11
72395;BME280;60384;48.152;11.614;2023-02-13T08:12:38;97623.81;;;3.22;65.56
72395;BME280;60384;48.152;11.614;2023-02-13T08:15:42;97622.81;;;3.23;65.08
72395;BME280;60384;48.152;11.614;2023-02-13T08:18:44;97626.25;;;3.24;65.55
72395;BME280;60384;48.152;11.614;2023-02-13T08:21:46;97625.19;;;3.25;65.31
72395;BME280;60384;48.152;11.614;2023-02-13T08:24:48;97617.06;;;3.26;65.42
72395;BME280;60384;48.152;11.614;2023-02-13T08:27:49;97620.09;;;3.30;65.76
72395;BME280;60384;48.152;11.614;2023-02-13T08:30:52;97617.44;;;3.30;65.47
72395;BME280;60384;48.152;11.614;2023-02-13T08:33:54;97613.06;;;3.24;65.58
72395;BME280;60384;48.152;11.614;2023-02-13T08:36:56;97609.00;;;3.21;65.59
72395;BME280;60384;48.152;11.614;2023-02-13T08:39:58;97612.25;;;3.23;65.11
72395;BME280;60384;48.152;11.614;2023-02-13T08:43:00;97619.16;;;3.24;65.17
72395;BME280;60384;48.152;11.614;2023-02-13T08:46:04;97617.53;;;3.23;65.29
72395;BME280;60384;48.152;11.614;2023-02-13T08:49:06;97619.16;;;3.24;65.43
72395;BME280;60384;48.152;11.614;2023-02-13T08:52:07;97615.31;;;3.20;65.43
72395;BME280;60384;48.152;11.614;2023-02-13T08:55:09;97628.75;;;3.19;65.58
72395;BME280;60384;48.152;11.614;2023-02-13T08:58:11;97632.97;;;3.20;65.27
72395;BME280;60384;48.152;11.614;2023-02-13T09:01:14;97625.19;;;3.25;65.77
72395;BME280;60384;48.152;11.614;2023-02-13T09:04:16;97617.28;;;3.25;65.32
72395;BME280;60384;48.152;11.614;2023-02-13T09:07:18;97624.78;;;3.28;65.58
72395;BME280;60384;48.152;11.614;2023-02-13T09:10:20;97622.72;;;3.30;65.53
72395;BME280;60384;48.152;11.614;2023-02-13T09:13:22;97628.22;;;3.28;65.39
72395;BME280;60384;48.152;11.614;2023-02-13T09:16:25;97626.97;;;3.31;65.66
72395;BME280;60384;48.152;11.614;2023-02-13T09:19:27;97636.28;;;3.33;65.27
72395;BME280;60384;48.152;11.614;2023-02-13T09:22:28;97638.47;;;3.37;65.45
72395;BME280;60384;48.152;11.614;2023-02-13T09:25:30;97641.13;;;3.37;65.29
72395;BME280;60384;48.152;11.614;2023-02-13T09:28:33;97643.53;;;3.38;65.50
72395;BME280;60384;48.152;11.614;2023-02-13T09:31:36;97638.47;;;3.37;65.62
72395;BME280;60384;48.152;11.614;2023-02-13T09:34:38;97636.88;;;3.36;65.71
72395;BME280;60384;48.152;11.614;2023-02-13T09:37:59;97636.28;;;3.33;65.81
72395;BME280;60384;48.152;11.614;2023-02-13T09:41:04;97630.78;;;3.35;65.79
72395;BME280;60384;48.152;11.614;2023-02-13T09:44:11;97636.44;;;3.39;65.75
72395;BME280;60384;48.152;11.614;2023-02-13T09:47:36;97634.38;;;3.41;65.73
72395;BME280;60384;48.152;11.614;2023-02-13T09:50:40;97638.84;;;3.40;65.57
72395;BME280;60384;48.152;11.614;2023-02-13T09:53:47;97646.19;;;3.38;65.85
72395;BME280;60384;48.152;11.614;2023-02-13T09:56:54;97642.50;;;3.39;65.40
72395;BME280;60384;48.152;11.614;2023-02-13T10:00:06;97638.84;;;3.40;66.13
72395;BME280;60384;48.152;11.614;2023-02-13T10:03:18;97643.47;;;3.45;65.31
72395;BME280;60384;48.152;11.614;2023-02-13T10:06:26;97648.28;;;3.48;65.94
72395;BME280;60384;48.152;11.614;2023-02-13T10:09:33;97647.25;;;3.49;65.19
72395;BME280;60384;48.152;11.614;2023-02-13T10:12:51;97648.47;;;3.53;65.12
72395;BME280;60384;48.152;11.614;2023-02-13T10:16:01;97642.94;;;3.54;65.44
72395;BME280;60384;48.152;11.614;2023-02-13T10:19:15;97644.75;;;3.54;65.55
72395;BME280;60384;48.152;11.614;2023-02-13T10:22:20;97644.75;;;3.54;65.11
72395;BME280;60384;48.152;11.614;2023-02-13T10:25:27;97643.31;;;3.58;65.74
72395;BME280;60384;48.152;11.614;2023-02-13T10:28:33;97635.94;;;3.60;65.48
72395;BME280;60384;48.152;11.614;2023-02-13T10:31:38;97631.69;;;3.59;65.61
72395;BME280;60384;48.152;11.614;2023-02-13T10:34:44;97631.03;;;3.63;65.47
72395;BME280;60384;48.152;11.614;2023-02-13T10:37:47;97634.38;;;3.70;65.66
72395;BME280;60384;48.152;11.614;2023-02-13T10:41:03;97631.50;;;3.72;65.65
72395;BME280;60384;48.152;11.614;2023-02-13T10:44:29;97631.91;;;3.76;65.03
72395;BME280;60384;48.152;11.614;2023-02-13T10:47:54;97631.22;;;3.80;65.35
72395;BME280;60384;48.152;11.614;2023-02-13T10:51:04;97625.69;;;3.82;65.82
72395;BME280;60384;48.152;11.614;2023-02-13T10:54:21;97623.41;;;3.85;65.74
72395;BME280;60384;48.152;11.614;2023-02-13T10:57:27;97622.38;;;3.86;65.59
72395;BME280;60384;48.152;11.614;2023-02-13T11:00:36;97619.63;;;3.81;65.07
72395;BME280;60384;48.152;11.614;2023-02-13T11:03:39;97612.94;;;3.79;65.47
72395;BME280;60384;48.152;11.614;2023-02-13T11:06:45;97606.03;;;3.78;65.45
72395;BME280;60384;48.152;11.614;2023-02-13T11:09:49;97613.28;;;3.82;65.51
72395;BME280;60384;48.152;11.614;2023-02-13T11:12:54;97605.34;;;3.82;65.76
72395;BME280;60384;48.152;11.614;2023-02-13T11:15:56;97602.69;;;3.82;65.35
72395;BME280;60384;48.152;11.614;2023-02-13T11:18:58;97608.00;;;3.82;65.39
72395;BME280;60384;48.152;11.614;2023-02-13T11:22:05;97605.81;;;3.79;65.14
72395;BME280;60384;48.152;11.614;2023-02-13T11:25:17;97601.69;;;3.83;65.76
72395;BME280;60384;48.152;11.614;2023-02-13T11:28:20;97596.06;;;3.91;64.99
72395;BME280;60384;48.152;11.614;2023-02-13T11:31:25;97593.56;;;3.96;65.63
72395;BME280;60384;48.152;11.614;2023-02-13T11:34:29;97594.72;;;4.00;65.72
72395;BME280;60384;48.152;11.614;2023-02-13T11:37:33;97596.91;;;4.03;65.00
72395;BME280;60384;48.152;11.614;2023-02-13T11:40:35;97596.09;;;4.03;65.64
72395;BME280;60384;48.152;11.614;2023-02-13T11:43:43;97596.09;;;4.03;64.97
72395;BME280;60384;48.152;11.614;2023-02-13T11:46:48;97596.09;;;4.03;65.93
72395;BME280;60384;48.152;11.614;2023-02-13T11:49:56;97603.44;;;4.01;65.78
72395;BME280;60384;48.152;11.614;2023-02-13T11:53:01;97604.03;;;4.03;65.26
72395;BME280;60384;48.152;11.614;2023-02-13T11:56:08;97604.38;;;4.06;65.89
72395;BME280;60384;48.152;11.614;2023-02-13T11:59:12;97603.94;;;4.09;65.55
72395;BME280;60384;48.152;11.614;2023-02-13T12:02:17;97602.88;;;4.10;65.07
72395;BME280;60384;48.152;11.614;2023-02-13T12:05:21;97599.81;;;4.13;65.69
72395;BME280;60384;48.152;11.614;2023-02-13T12:08:24;97602.44;;;4.13;65.50
72395;BME280;60384;48.152;11.614;2023-02-13T12:11:34;97605.31;;;4.12;65.52
72395;BME280;60384;48.152;11.614;2023-02-13T12:14:41;97594.94;;;4.10;65.54
72395;BME280;60384;48.152;11.614;2023-02-13T12:17:44;97594.41;;;4.08;65.42
72395;BME280;60384;48.152;11.614;2023-02-13T12:20:52;97594.72;;;4.12;65.33
72395;BME280;60384;48.152;11.614;2023-02-13T12:24:02;97589.81;;;4.15;65.70
72395;BME280;60384;48.152;11.614;2023-02-13T12:27:16;97594.84;;;4.17;65.22
72395;BME280;60384;48.152;11.614;2023-02-13T12:30:52;97588.31;;;4.20;65.53
72395;BME280;60384;48.152;11.614;2023-02-13T12:34:40;97574.50;;;4.18;65.42
72395;BME280;60384;48.152;11.614;2023-02-13T12:37:55;97578.28;;;4.22;65.83
72395;BME280;60384;48.152;11.614;2023-02-13T12:41:13;97573.00;;;4.22;65.11
72395;BME280;60384;48.152;11.614;2023-02-13T12:44:32;97565.44;;;4.25;65.31
72395;BME280;60384;48.152;11.614;2023-02-13T12:47:44;97567.38;;;4.30;65.31
72395;BME280;60384;48.152;11.614;2023-02-13T12:51:01;97564.63;;;4.36;65.31
72395;BME280;60384;48.152;11.614;2023-02-13T12:54:19;97557.84;;;4.40;65.30
72395;BME280;60384;48.152;11.614;2023-02-13T12:57:37;97553.94;;;4.43;65.36
72395;BME280;60384;48.152;11.614;2023-02-13T13:00:51;97551.63;;;4.46;65.10
72395;BME280;60384;48.152;11.614;2023-02-13T13:04:06;97549.69;;;4.53;65.39
72395;BME280;60384;48.152;11.614;2023-02-13T13:07:22;97549.19;;;4.56;65.47
72395;BME280;60384;48.152;11.614;2023-02-13T13:10:35;97553.47;;;4.57;65.77
72395;BME280;60384;48.152;11.614;2023-02-13T13:13:53;97558.75;;;4.57;65.10
72395;BME280;60384;48.152;11.614;2023-02-13T13:17:04;97560.16;;;4.60;64.94
72395;BME280;60384;48.152;11.614;2023-02-13T13:20:28;97558.19;;;4.55;64.96
72395;BME280;60384;48.152;11.614;2023-02-13T13:23:39;97566.34;;;4.54;65.99
72395;BME280;60384;48.152;11.614;2023-02-13T13:26:46;97561.28;;;4.52;65.93
72395;BME280;60384;48.152;11.614;2023-02-13T13:29:54;97562.53;;;4.50;65.97
72395;BME280;60384;48.152;11.614;2023-02-13T13:33:01;97558.06;;;4.50;65.71
72395;BME280;60384;48.152;11.614;2023-02-13T13:36:08;97562.78;;;4.48;65.89
72395;BME280;60384;48.152;11.614;2023-02-13T13:39:23;97572.56;;;4.48;65.98
72395;BME280;60384;48.152;11.614;2023-02-13T13:42:36;97571.75;;;4.47;65.81
72395;BME280;60384;48.152;11.614;2023-02-13T13:45:44;97570.38;;;4.45;65.17
72395;BME280;60384;48.152;11.614;2023-02-13T13:49:09;97577.16;;;4.41;65.82
72395;BME280;60384;48.152;11.614;2023-02-13T13:52:24;97569.69;;;4.38;65.74
72395;BME280;60384;48.152;11.614;2023-02-13T13:56:05;97563.81;;;4.36;65.38
72395;BME280;60384;48.152;11.614;2023-02-13T13:59:15;97567.16;;;4.31;66.07
72395;BME280;60384;48.152;11.614;2023-02-13T14:02:45;97559.44;;;4.30;65.48
72395;BME280;60384;48.152;11.614;2023-02-13T14:05:58;97556.09;;;4.23;65.55
72395;BME280;60384;48.152;11.614;2023-02-13T14:12:35;97554.50;;;4.22;65.73
72395;BME280;60384;48.152;11.614;2023-02-13T14:15:50;97555.53;;;4.21;66.02
72395;BME280;60384;48.152;11.614;2023-02-13T14:18:53;97558.41;;;4.19;65.95
72395;BME280;60384;48.152;11.614;2023-02-13T14:22:32;97557.81;;;4.17;65.58
72395;BME280;60384;48.152;11.614;2023-02-13T14:25:34;97557.28;;;4.15;66.34
72395;BME280;60384;48.152;11.614;2023-02-13T14:28:38;97561.75;;;4.14;65.86
72395;BME280;60384;48.152;11.614;2023-02-13T14:31:42;97550.00;;;4.10;66.26
72395;BME280;60384;48.152;11.614;2023-02-13T14:34:57;97548.41;;;4.09;65.93
72395;BME280;60384;48.152;11.614;2023-02-13T14:38:02;97550.00;;;4.10;66.13
72395;BME280;60384;48.152;11.614;2023-02-13T14:41:05;97552.19;;;4.13;65.91
72395;BME280;60384;48.152;11.614;2023-02-13T14:44:15;97545.06;;;4.14;65.60
72395;BME280;60384;48.152;11.614;2023-02-13T14:47:20;97550.91;;;4.16;66.15
72395;BME280;60384;48.152;11.614;2023-02-13T14:50:27;97548.06;;;4.18;66.20
72395;BME280;60384;48.152;11.614;2023-02-13T14:53:34;97549.34;;;4.15;65.88
72395;BME280;60384;48.152;11.614;2023-02-13T14:56:38;97543.25;;;4.14;65.86
72395;BME280;60384;48.152;11.614;2023-02-13T14:59:44;97546.09;;;4.13;66.19
72395;BME280;60384;48.152;11.614;2023-02-13T15:02:52;97547.34;;;4.10;65.56
72395;BME280;60384;48.152;11.614;2023-02-13T15:06:00;97535.19;;;4.09;65.83
72395;BME280;60384;48.152;11.614;2023-02-13T15:09:11;97542.06;;;4.10;66.43
72395;BME280;60384;48.152;11.614;2023-02-13T15:12:24;97543.13;;;4.09;66.15
72395;BME280;60384;48.152;11.614;2023-02-13T15:15:28;97538.41;;;4.11;65.84
72395;BME280;60384;48.152;11.614;2023-02-13T15:18:33;97538.16;;;4.13;65.59
72395;BME280;60384;48.152;11.614;2023-02-13T15:21:46;97542.66;;;4.12;65.58
72395;BME280;60384;48.152;11.614;2023-02-13T15:24:48;97538.16;;;4.13;66.28
72395;BME280;60384;48.152;11.614;2023-02-13T15:27:52;97530.81;;;4.15;65.90
72395;BME280;60384;48.152;11.614;2023-02-13T15:30:56;97537.69;;;4.16;65.73
72395;BME280;60384;48.152;11.614;2023-02-13T15:33:59;97534.28;;;4.15;65.65
72395;BME280;60384;48.152;11.614;2023-02-13T15:37:02;97530.00;;;4.14;66.50
72395;BME280;60384;48.152;11.614;2023-02-13T15:40:24;97528.41;;;4.13;65.57
72395;BME280;60384;48.152;11.614;2023-02-13T15:43:31;97529.44;;;4.12;65.87
72395;BME280;60384;48.152;11.614;2023-02-13T15:46:35;97525.16;;;4.11;65.63
72395;BME280;60384;48.152;11.614;2023-02-13T15:49:41;97524.03;;;4.07;65.58
72395;BME280;60384;48.152;11.614;2023-02-13T15:52:45;97526.56;;;4.02;66.44
72395;BME280;60384;48.152;11.614;2023-02-13T15:55:55;97528.28;;;3.97;66.12
72395;BME280;60384;48.152;11.614;2023-02-13T15:58:59;97535.84;;;3.93;65.89
72395;BME280;60384;48.152;11.614;2023-02-13T16:02:02;97538.16;;;3.90;66.44
72395;BME280;60384;48.152;11.614;2023-02-13T16:05:05;97533.31;;;3.87;66.59
72395;BME280;60384;48.152;11.614;2023-02-13T16:08:28;97532.75;;;3.85;66.76
72395;BME280;60384;48.152;11.614;2023-02-13T16:11:31;97533.75;;;3.84;66.47
72395;BME280;60384;48.152;11.614;2023-02-13T16:14:43;97543.53;;;3.83;66.74
72395;BME280;60384;48.152;11.614;2023-02-13T16:17:46;97538.47;;;3.82;66.14
72395;BME280;60384;48.152;11.614;2023-02-13T16:20:52;97538.94;;;3.79;66.62
72395;BME280;60384;48.152;11.614;2023-02-13T16:23:58;97540.16;;;3.76;66.36
72395;BME280;60384;48.152;11.614;2023-02-13T16:27:01;97539.25;;;3.70;66.36
72395;BME280;60384;48.152;11.614;2023-02-13T16:30:05;97537.53;;;3.64;66.89
72395;BME280;60384;48.152;11.614;2023-02-13T16:33:25;97532.69;;;3.61;66.95
72395;BME280;60384;48.152;11.614;2023-02-13T16:36:28;97542.66;;;3.59;67.01
72395;BME280;60384;48.152;11.614;2023-02-13T16:39:32;97546.56;;;3.57;66.89
72395;BME280;60384;48.152;11.614;2023-02-13T16:42:34;97547.81;;;3.54;67.08